createdAt,value
2023-01-25T00:00:15.814Z,2.42
2023-01-25T00:05:19.693Z,2.50
2023-01-25T00:10:23.425Z,2.40
2023-01-25T00:15:28.848Z,2.70
2023-01-25T00:20:32.520Z,2.60
2023-01-25T00:25:36.472Z,2.47
2023-01-25T00:30:41.956Z,2.90
2023-01-25T00:35:46.176Z,2.38
2023-01-25T00:40:51.161Z,2.50
2023-01-25T00:46:01.821Z,2.57
2023-01-25T00:51:05.748Z,2.63
2023-01-25T00:56:09.861Z,2.80
2023-01-25T01:01:15.379Z,2.60
2023-01-25T01:06:19.492Z,2.67
2023-01-25T01:11:23.285Z,2.80
2023-01-25T01:16:28.713Z,2.85
2023-01-25T01:21:32.496Z,2.87
2023-01-25T01:26:36.489Z,2.67
2023-01-25T01:31:41.988Z,2.58
2023-01-25T01:36:45.905Z,2.88
2023-01-25T01:41:50.065Z,2.97
2023-01-25T01:46:57.617Z,2.70
2023-01-25T01:52:04.587Z,2.90
2023-01-25T01:57:12.490Z,3.10
2023-01-25T02:02:18.583Z,2.70
2023-01-25T02:07:26.336Z,3.03
2023-01-25T02:12:32.906Z,2.67
2023-01-25T02:17:39.854Z,2.80
2023-01-25T02:22:53.084Z,2.92
2023-01-25T02:28:04.019Z,3.20
2023-01-25T02:33:07.814Z,2.80
2023-01-25T02:38:15.799Z,2.63
2023-01-25T02:43:21.462Z,2.92
2023-01-25T02:48:25.421Z,2.80
2023-01-25T02:53:29.854Z,3.10
2023-01-25T02:58:35.466Z,2.83
2023-01-25T03:03:39.211Z,2.93
2023-01-25T03:08:43.164Z,3.45
2023-01-25T03:13:48.769Z,3.17
2023-01-25T03:18:54.853Z,3.50
2023-01-25T03:23:59.977Z,3.28
2023-01-25T03:29:05.384Z,3.30
2023-01-25T03:34:09.349Z,3.33
2023-01-25T03:39:13.421Z,3.33
2023-01-25T03:44:19.154Z,3.55
2023-01-25T03:49:22.928Z,3.40
2023-01-25T03:54:27.042Z,3.55
2023-01-25T03:59:32.728Z,3.40
2023-01-25T04:04:36.919Z,3.00
2023-01-25T04:09:40.691Z,3.00
2023-01-25T04:14:46.115Z,3.35
2023-01-25T04:19:49.794Z,3.40
2023-01-25T04:24:53.497Z,3.10
2023-01-25T04:29:59.885Z,3.50
2023-01-25T04:35:03.826Z,3.00
2023-01-25T04:40:08.640Z,3.22
2023-01-25T04:45:14.595Z,3.40
2023-01-25T04:50:18.502Z,3.45
2023-01-25T04:55:22.466Z,3.60
2023-01-25T05:00:28.444Z,3.40
2023-01-25T05:05:32.513Z,4.57
2023-01-25T05:10:36.178Z,7.53
2023-01-25T05:15:41.496Z,5.13
2023-01-25T05:20:45.172Z,5.82
2023-01-25T05:25:48.839Z,6.78
2023-01-25T05:30:54.193Z,6.05
2023-01-25T05:35:57.973Z,5.30
2023-01-25T05:41:01.627Z,5.35
2023-01-25T05:46:07.160Z,4.93
2023-01-25T05:51:10.854Z,4.70
2023-01-25T05:56:14.605Z,4.10
2023-01-25T06:01:19.957Z,4.45
2023-01-25T06:06:23.912Z,4.35
2023-01-25T06:11:27.575Z,4.15
2023-01-25T06:16:32.873Z,3.85
2023-01-25T06:21:36.868Z,3.67
2023-01-25T06:26:40.617Z,3.72
2023-01-25T06:31:46.022Z,4.00
2023-01-25T06:36:50.029Z,3.90
2023-01-25T06:41:53.707Z,3.50
2023-01-25T06:46:59.064Z,3.60
2023-01-25T06:52:03.649Z,3.72
2023-01-25T06:57:07.365Z,3.10
2023-01-25T07:02:16.190Z,3.15
2023-01-25T07:07:19.853Z,3.40
2023-01-25T07:12:23.502Z,3.25
2023-01-25T07:17:28.793Z,3.60
2023-01-25T07:22:32.454Z,3.50
2023-01-25T07:27:36.366Z,3.58
2023-01-25T07:32:41.732Z,3.40
2023-01-25T07:37:45.442Z,3.17
2023-01-25T07:42:49.120Z,4.00
2023-01-25T07:47:54.452Z,3.33
2023-01-25T07:52:59.620Z,3.65
2023-01-25T07:58:03.282Z,3.30
2023-01-25T08:03:09.323Z,3.40
2023-01-25T08:08:13.728Z,3.47
2023-01-25T08:13:17.415Z,3.30
2023-01-25T08:18:22.753Z,3.60
2023-01-25T08:23:26.519Z,3.50
2023-01-25T08:28:30.207Z,3.50
2023-01-25T08:33:36.262Z,3.58
2023-01-25T08:38:40.363Z,3.67
2023-01-25T08:43:45.671Z,4.00
2023-01-25T08:48:54.870Z,3.40
2023-01-25T08:54:02.239Z,3.35
2023-01-25T08:59:06.158Z,3.70
2023-01-25T09:04:11.577Z,3.50
2023-01-25T09:09:15.407Z,3.60
2023-01-25T09:14:19.102Z,4.00
2023-01-25T09:19:25.421Z,4.10
2023-01-25T09:24:29.106Z,5.65
2023-01-25T09:29:32.782Z,4.97
2023-01-25T09:34:39.144Z,4.00
2023-01-25T09:39:42.820Z,5.50
2023-01-25T09:45:03.276Z,4.60
2023-01-25T09:50:24.708Z,5.07
2023-01-25T09:55:31.452Z,5.38
2023-01-25T10:00:38.470Z,4.68
2023-01-25T10:05:48.267Z,4.10
2023-01-25T10:10:58.985Z,4.07
2023-01-25T10:16:12.032Z,4.15
2023-01-25T10:21:31.170Z,4.20
2023-01-25T10:26:36.506Z,4.03
2023-01-25T10:31:45.225Z,4.57
2023-01-25T10:36:54.885Z,4.55
2023-01-25T10:42:03.535Z,4.40
2023-01-25T10:47:16.090Z,4.40
2023-01-25T10:52:23.422Z,4.00
2023-01-25T10:57:27.320Z,4.50
2023-01-25T11:02:44.870Z,4.18
2023-01-25T11:07:50.313Z,3.60
2023-01-25T11:13:19.014Z,3.88
2023-01-25T11:18:25.157Z,3.65
2023-01-25T11:23:30.521Z,3.50
2023-01-25T11:28:34.209Z,3.55
2023-01-25T11:33:38.406Z,4.00
2023-01-25T11:38:56.015Z,3.50
2023-01-25T11:44:16.709Z,3.85
2023-01-25T11:49:51.883Z,3.20
2023-01-25T11:55:11.445Z,3.70
2023-01-25T12:00:30.902Z,3.13
2023-01-25T12:05:47.918Z,3.30
2023-01-25T12:10:59.031Z,3.38
2023-01-25T12:16:27.539Z,3.60
2023-01-25T12:21:49.654Z,3.72
2023-01-25T12:27:02.529Z,3.40
2023-01-25T12:32:12.915Z,3.22
2023-01-25T12:37:21.957Z,3.30
2023-01-25T12:42:33.231Z,3.47
2023-01-25T12:47:42.725Z,3.20
2023-01-25T12:52:50.015Z,3.40
2023-01-25T12:58:04.168Z,3.53
2023-01-25T13:03:22.366Z,3.30
2023-01-25T13:08:35.897Z,3.45
2023-01-25T13:13:41.337Z,3.47
2023-01-25T13:18:46.414Z,3.47
2023-01-25T13:24:13.190Z,3.67
2023-01-25T13:29:52.350Z,3.60
2023-01-25T13:35:01.140Z,3.80
2023-01-25T13:40:06.823Z,4.80
2023-01-25T13:45:17.939Z,5.00
2023-01-25T13:50:26.763Z,4.03
2023-01-25T13:55:38.593Z,4.45
2023-01-25T14:00:53.803Z,4.30
2023-01-25T14:06:00.515Z,4.55
2023-01-25T14:11:04.237Z,5.35
2023-01-25T14:16:11.067Z,5.20
2023-01-25T14:21:18.020Z,5.80
2023-01-25T14:26:24.633Z,4.10
2023-01-25T14:36:38.609Z,5.38
2023-01-25T14:41:48.809Z,5.85
2023-01-25T14:47:22.934Z,5.10
2023-01-25T14:52:28.971Z,5.72
2023-01-25T14:57:38.126Z,5.28
2023-01-25T15:02:47.460Z,5.70
2023-01-25T15:07:54.482Z,4.97
2023-01-25T15:13:13.577Z,6.55
2023-01-25T15:18:44.493Z,5.50
2023-01-25T15:23:50.554Z,5.38
2023-01-25T15:28:56.488Z,5.82
2023-01-25T15:34:01.697Z,5.90
2023-01-25T15:39:11.671Z,5.07
2023-01-25T15:44:15.514Z,5.18
2023-01-25T15:49:25.710Z,4.95
2023-01-25T15:54:31.091Z,4.90
2023-01-25T15:59:34.851Z,4.53
2023-01-25T16:04:39.016Z,4.95
2023-01-25T16:09:44.323Z,5.03
2023-01-25T16:14:47.999Z,4.55
2023-01-25T16:19:51.798Z,3.47
2023-01-25T16:24:57.193Z,4.38
2023-01-25T16:30:01.596Z,4.13
2023-01-25T16:35:05.654Z,3.97
2023-01-25T16:40:22.308Z,3.78
2023-01-25T16:50:28.885Z,3.63
2023-01-25T16:55:34.214Z,4.45
2023-01-25T17:00:38.401Z,4.15
2023-01-25T17:05:42.062Z,4.10
2023-01-25T17:10:47.425Z,4.43
2023-01-25T17:15:51.204Z,4.32
2023-01-25T17:21:06.365Z,3.85
2023-01-25T17:26:15.676Z,4.30
2023-01-25T17:31:21.768Z,4.45
2023-01-25T17:41:30.179Z,4.43
2023-01-25T17:46:35.609Z,3.70
2023-01-25T17:51:39.417Z,4.50
2023-01-25T17:56:44.823Z,4.82
2023-01-25T18:01:48.578Z,5.37
2023-01-25T18:06:52.898Z,5.35
2023-01-25T18:11:58.247Z,5.95
2023-01-25T18:17:01.944Z,5.70
2023-01-25T18:22:05.672Z,5.45
2023-01-25T18:27:20.768Z,6.18
2023-01-25T18:32:24.826Z,4.82
2023-01-25T18:37:29.245Z,4.82
2023-01-25T18:42:34.835Z,4.75
2023-01-25T18:47:38.801Z,4.53
2023-01-25T18:52:42.554Z,4.70
2023-01-25T18:57:47.857Z,3.88
2023-01-25T19:02:51.580Z,4.00
2023-01-25T19:07:55.301Z,3.67
2023-01-25T19:13:00.630Z,2.88
2023-01-25T19:18:04.340Z,3.20
2023-01-25T19:23:08.004Z,2.45
2023-01-25T19:28:13.330Z,2.42
2023-01-25T19:33:17.052Z,2.50
2023-01-25T19:38:20.697Z,2.42
2023-01-25T19:43:26.027Z,2.50
2023-01-25T19:48:30.436Z,2.60
2023-01-25T19:53:34.083Z,2.60
2023-01-25T19:58:39.429Z,2.60
2023-01-25T20:03:43.166Z,2.35
2023-01-25T20:08:47.918Z,2.70
2023-01-25T20:13:54.842Z,2.63
2023-01-25T20:18:58.893Z,2.70
2023-01-25T20:24:05.536Z,2.63
2023-01-25T20:29:11.661Z,2.60
2023-01-25T20:34:17.361Z,2.85
2023-01-25T20:44:27.176Z,2.90
2023-01-25T20:49:31.744Z,3.00
2023-01-25T20:54:35.402Z,3.00
2023-01-25T20:59:40.713Z,3.00
2023-01-25T21:04:44.453Z,3.40
2023-01-25T21:09:48.154Z,3.17
2023-01-25T21:14:53.472Z,3.10
2023-01-25T21:19:57.125Z,2.70
2023-01-25T21:25:00.771Z,3.00
2023-01-25T21:30:06.859Z,2.90
2023-01-25T21:35:11.281Z,2.70
2023-01-25T21:40:16.653Z,2.90
2023-01-25T21:45:22.008Z,2.80
2023-01-25T21:50:26.143Z,2.90
2023-01-25T21:55:29.797Z,3.00
2023-01-25T22:00:35.149Z,3.00
2023-01-25T22:05:38.849Z,2.80
2023-01-25T22:10:42.509Z,2.90
2023-01-25T22:15:47.848Z,2.78
2023-01-25T22:20:58.009Z,2.65
2023-01-25T22:26:06.127Z,3.00
2023-01-25T22:31:11.525Z,2.97
2023-01-25T22:36:16.718Z,2.75
2023-01-25T22:41:22.478Z,2.58
2023-01-25T22:46:29.682Z,2.70
2023-01-25T22:51:33.613Z,2.60
2023-01-25T22:56:37.286Z,2.67
2023-01-25T23:01:42.601Z,2.58
2023-01-25T23:06:46.331Z,2.60
2023-01-25T23:11:49.995Z,2.22
2023-01-25T23:16:55.508Z,2.40
2023-01-25T23:21:59.157Z,2.30
2023-01-25T23:27:02.854Z,2.50
2023-01-25T23:32:08.303Z,2.30
2023-01-25T23:37:12.352Z,2.20
2023-01-25T23:42:16.162Z,2.35
2023-01-25T23:47:21.486Z,2.17
2023-01-25T23:52:25.151Z,2.22
2023-01-25T23:57:28.870Z,2.28
